sensor_id;sensor_type;location;lat;lon;timestamp;temperature;humidity
41924;DHT22;27613;48.116;11.656;2023-08-06T00:01:48;14.30;99.90
41924;DHT22;27613;48.116;11.656;2023-08-06T00:04:13;14.30;99.90
41924;DHT22;27613;48.116;11.656;2023-08-06T00:06:39;14.30;99.90
41924;DHT22;27613;48.116;11.656;2023-08-06T00:09:05;14.30;99.90
41924;DHT22;27613;48.116;11.656;2023-08-06T00:11:30;14.30;99.90
41924;DHT22;27613;48.116;11.656;2023-08-06T00:13:56;14.30;99.90
41924;DHT22;27613;48.116;11.656;2023-08-06T00:16:21;14.20;99.90
41924;DHT22;27613;48.116;11.656;2023-08-06T00:18:47;14.20;99.90
41924;DHT22;27613;48.116;11.656;2023-08-06T00:21:12;14.30;99.90
41924;DHT22;27613;48.116;11.656;2023-08-06T00:23:39;14.20;99.90
41924;DHT22;27613;48.116;11.656;2023-08-06T00:26:04;14.20;99.90
41924;DHT22;27613;48.116;11.656;2023-08-06T00:28:30;14.20;99.90
41924;DHT22;27613;48.116;11.656;2023-08-06T00:30:56;14.20;99.90
41924;DHT22;27613;48.116;11.656;2023-08-06T00:33:25;14.20;99.90
41924;DHT22;27613;48.116;11.656;2023-08-06T00:35:50;14.20;99.90
41924;DHT22;27613;48.116;11.656;2023-08-06T00:38:16;14.20;99.90
41924;DHT22;27613;48.116;11.656;2023-08-06T00:40:42;14.20;99.90
41924;DHT22;27613;48.116;11.656;2023-08-06T00:43:07;14.20;99.90
41924;DHT22;27613;48.116;11.656;2023-08-06T00:45:35;14.20;99.90
41924;DHT22;27613;48.116;11.656;2023-08-06T00:48:02;14.10;99.90
41924;DHT22;27613;48.116;11.656;2023-08-06T00:50:29;14.10;99.90
41924;DHT22;27613;48.116;11.656;2023-08-06T00:52:54;14.10;99.90
41924;DHT22;27613;48.116;11.656;2023-08-06T00:55:20;14.00;99.90
41924;DHT22;27613;48.116;11.656;2023-08-06T00:57:46;14.00;99.90
41924;DHT22;27613;48.116;11.656;2023-08-06T01:00:12;13.90;99.90
41924;DHT22;27613;48.116;11.656;2023-08-06T01:02:37;13.90;99.90
41924;DHT22;27613;48.116;11.656;2023-08-06T01:05:03;13.80;99.90
41924;DHT22;27613;48.116;11.656;2023-08-06T01:07:56;13.80;99.90
41924;DHT22;27613;48.116;11.656;2023-08-06T01:13:19;13.70;99.90
41924;DHT22;27613;48.116;11.656;2023-08-06T01:15:55;13.60;99.90
41924;DHT22;27613;48.116;11.656;2023-08-06T01:18:23;13.50;99.90
41924;DHT22;27613;48.116;11.656;2023-08-06T01:20:48;13.50;99.90
41924;DHT22;27613;48.116;11.656;2023-08-06T01:23:15;13.50;99.90
41924;DHT22;27613;48.116;11.656;2023-08-06T01:28:48;13.40;99.90
41924;DHT22;27613;48.116;11.656;2023-08-06T01:31:24;13.40;99.90
41924;DHT22;27613;48.116;11.656;2023-08-06T01:33:53;13.40;99.90
41924;DHT22;27613;48.116;11.656;2023-08-06T01:36:19;13.40;99.90
41924;DHT22;27613;48.116;11.656;2023-08-06T01:38:46;13.40;99.90
41924;DHT22;27613;48.116;11.656;2023-08-06T01:41:11;13.40;99.90
41924;DHT22;27613;48.116;11.656;2023-08-06T01:43:37;13.40;99.90
41924;DHT22;27613;48.116;11.656;2023-08-06T01:46:02;13.40;99.90
41924;DHT22;27613;48.116;11.656;2023-08-06T01:48:28;13.40;99.90
41924;DHT22;27613;48.116;11.656;2023-08-06T01:50:53;13.30;99.90
41924;DHT22;27613;48.116;11.656;2023-08-06T01:53:19;13.20;99.90
41924;DHT22;27613;48.116;11.656;2023-08-06T01:55:48;13.20;99.90
41924;DHT22;27613;48.116;11.656;2023-08-06T01:58:14;13.20;99.90
41924;DHT22;27613;48.116;11.656;2023-08-06T02:00:40;13.20;99.90
41924;DHT22;27613;48.116;11.656;2023-08-06T02:03:06;13.10;99.90
41924;DHT22;27613;48.116;11.656;2023-08-06T02:05:31;13.10;99.90
41924;DHT22;27613;48.116;11.656;2023-08-06T02:07:57;13.10;99.90
41924;DHT22;27613;48.116;11.656;2023-08-06T02:10:22;13.10;99.90
41924;DHT22;27613;48.116;11.656;2023-08-06T02:12:48;13.10;99.90
41924;DHT22;27613;48.116;11.656;2023-08-06T02:15:13;13.10;99.90
41924;DHT22;27613;48.116;11.656;2023-08-06T02:17:39;13.10;99.90
41924;DHT22;27613;48.116;11.656;2023-08-06T02:20:05;13.10;99.90
41924;DHT22;27613;48.116;11.656;2023-08-06T02:22:31;13.10;99.90
41924;DHT22;27613;48.116;11.656;2023-08-06T02:24:56;13.10;99.90
41924;DHT22;27613;48.116;11.656;2023-08-06T02:27:22;13.10;99.90
41924;DHT22;27613;48.116;11.656;2023-08-06T02:29:47;13.00;99.90
41924;DHT22;27613;48.116;11.656;2023-08-06T02:32:13;13.00;99.90
41924;DHT22;27613;48.116;11.656;2023-08-06T02:34:38;13.00;99.90
41924;DHT22;27613;48.116;11.656;2023-08-06T02:37:04;13.00;99.90
41924;DHT22;27613;48.116;11.656;2023-08-06T02:39:29;13.00;99.90
41924;DHT22;27613;48.116;11.656;2023-08-06T02:41:55;13.00;99.90
41924;DHT22;27613;48.116;11.656;2023-08-06T02:44:20;13.00;99.90
41924;DHT22;27613;48.116;11.656;2023-08-06T02:46:46;13.00;99.90
41924;DHT22;27613;48.116;11.656;2023-08-06T02:49:12;13.00;99.90
41924;DHT22;27613;48.116;11.656;2023-08-06T02:51:37;12.90;99.90
41924;DHT22;27613;48.116;11.656;2023-08-06T02:54:03;12.90;99.90
41924;DHT22;27613;48.116;11.656;2023-08-06T02:56:28;12.90;99.90
41924;DHT22;27613;48.116;11.656;2023-08-06T02:58:54;12.80;99.90
41924;DHT22;27613;48.116;11.656;2023-08-06T03:01:19;12.90;99.90
41924;DHT22;27613;48.116;11.656;2023-08-06T03:03:45;12.80;99.90
41924;DHT22;27613;48.116;11.656;2023-08-06T03:06:10;12.80;99.90
41924;DHT22;27613;48.116;11.656;2023-08-06T03:08:36;12.80;99.90
41924;DHT22;27613;48.116;11.656;2023-08-06T03:11:01;12.80;99.90
41924;DHT22;27613;48.116;11.656;2023-08-06T03:13:27;12.80;99.90
41924;DHT22;27613;48.116;11.656;2023-08-06T03:15:57;12.70;99.90
41924;DHT22;27613;48.116;11.656;2023-08-06T03:18:23;12.70;99.90
41924;DHT22;27613;48.116;11.656;2023-08-06T03:20:49;12.70;99.90
41924;DHT22;27613;48.116;11.656;2023-08-06T03:23:15;12.70;99.90
41924;DHT22;27613;48.116;11.656;2023-08-06T03:25:41;12.70;99.90
41924;DHT22;27613;48.116;11.656;2023-08-06T03:28:06;12.70;99.90
41924;DHT22;27613;48.116;11.656;2023-08-06T03:30:32;12.70;99.90
41924;DHT22;27613;48.116;11.656;2023-08-06T03:32:57;12.70;99.90
41924;DHT22;27613;48.116;11.656;2023-08-06T03:35:23;12.70;99.90
41924;DHT22;27613;48.116;11.656;2023-08-06T03:37:48;12.70;99.90
41924;DHT22;27613;48.116;11.656;2023-08-06T03:40:15;12.60;99.90
41924;DHT22;27613;48.116;11.656;2023-08-06T03:42:40;12.70;99.90
41924;DHT22;27613;48.116;11.656;2023-08-06T03:45:06;12.60;99.90
41924;DHT22;27613;48.116;11.656;2023-08-06T03:47:32;12.60;99.90
41924;DHT22;27613;48.116;11.656;2023-08-06T03:49:58;12.60;99.90
41924;DHT22;27613;48.116;11.656;2023-08-06T03:52:23;12.60;99.90
41924;DHT22;27613;48.116;11.656;2023-08-06T03:54:49;12.50;99.90
41924;DHT22;27613;48.116;11.656;2023-08-06T03:57:14;12.50;99.90
41924;DHT22;27613;48.116;11.656;2023-08-06T03:59:40;12.50;99.90
41924;DHT22;27613;48.116;11.656;2023-08-06T04:02:05;12.40;99.90
41924;DHT22;27613;48.116;11.656;2023-08-06T04:04:31;12.50;99.90
41924;DHT22;27613;48.116;11.656;2023-08-06T04:06:56;12.40;99.90
41924;DHT22;27613;48.116;11.656;2023-08-06T04:09:22;12.40;99.90
41924;DHT22;27613;48.116;11.656;2023-08-06T04:11:47;12.40;99.90
41924;DHT22;27613;48.116;11.656;2023-08-06T04:14:13;12.50;99.90
41924;DHT22;27613;48.116;11.656;2023-08-06T04:16:38;12.40;99.90
41924;DHT22;27613;48.116;11.656;2023-08-06T04:19:04;12.50;99.90
41924;DHT22;27613;48.116;11.656;2023-08-06T04:21:29;12.40;99.90
41924;DHT22;27613;48.116;11.656;2023-08-06T04:23:56;12.50;99.90
41924;DHT22;27613;48.116;11.656;2023-08-06T04:26:22;12.50;99.90
41924;DHT22;27613;48.116;11.656;2023-08-06T04:28:47;12.50;99.90
41924;DHT22;27613;48.116;11.656;2023-08-06T04:31:14;12.60;99.90
41924;DHT22;27613;48.116;11.656;2023-08-06T04:33:39;12.60;99.90
41924;DHT22;27613;48.116;11.656;2023-08-06T04:36:06;12.60;99.90
41924;DHT22;27613;48.116;11.656;2023-08-06T04:38:32;12.60;99.90
41924;DHT22;27613;48.116;11.656;2023-08-06T04:40:58;12.60;99.90
41924;DHT22;27613;48.116;11.656;2023-08-06T04:43:23;12.70;99.90
41924;DHT22;27613;48.116;11.656;2023-08-06T04:45:50;12.80;99.90
41924;DHT22;27613;48.116;11.656;2023-08-06T04:48:16;12.80;99.90
41924;DHT22;27613;48.116;11.656;2023-08-06T04:50:49;12.80;99.90
41924;DHT22;27613;48.116;11.656;2023-08-06T04:53:15;12.90;99.90
41924;DHT22;27613;48.116;11.656;2023-08-06T04:55:41;12.90;99.90
41924;DHT22;27613;48.116;11.656;2023-08-06T04:58:08;13.00;99.90
41924;DHT22;27613;48.116;11.656;2023-08-06T05:00:34;13.00;99.90
41924;DHT22;27613;48.116;11.656;2023-08-06T05:03:00;13.10;99.90
41924;DHT22;27613;48.116;11.656;2023-08-06T05:05:28;13.10;99.90
41924;DHT22;27613;48.116;11.656;2023-08-06T05:07:57;13.10;99.90
41924;DHT22;27613;48.116;11.656;2023-08-06T05:10:26;13.20;99.90
41924;DHT22;27613;48.116;11.656;2023-08-06T05:12:52;13.10;99.90
41924;DHT22;27613;48.116;11.656;2023-08-06T05:15:18;13.10;99.90
41924;DHT22;27613;48.116;11.656;2023-08-06T05:17:43;13.10;99.90
41924;DHT22;27613;48.116;11.656;2023-08-06T05:20:09;13.10;99.90
41924;DHT22;27613;48.116;11.656;2023-08-06T05:22:35;13.00;99.90
41924;DHT22;27613;48.116;11.656;2023-08-06T05:25:01;13.00;99.90
41924;DHT22;27613;48.116;11.656;2023-08-06T05:27:26;13.00;99.90
41924;DHT22;27613;48.116;11.656;2023-08-06T05:29:55;13.00;99.90
41924;DHT22;27613;48.116;11.656;2023-08-06T05:32:20;13.10;99.90
41924;DHT22;27613;48.116;11.656;2023-08-06T05:34:46;13.10;99.90
41924;DHT22;27613;48.116;11.656;2023-08-06T05:37:11;13.10;99.90
41924;DHT22;27613;48.116;11.656;2023-08-06T05:39:37;13.10;99.90
41924;DHT22;27613;48.116;11.656;2023-08-06T05:42:03;13.10;99.90
41924;DHT22;27613;48.116;11.656;2023-08-06T05:44:28;13.10;99.90
41924;DHT22;27613;48.116;11.656;2023-08-06T05:46:54;13.10;99.90
41924;DHT22;27613;48.116;11.656;2023-08-06T05:49:19;13.10;99.90
41924;DHT22;27613;48.116;11.656;2023-08-06T05:51:45;13.10;99.90
41924;DHT22;27613;48.116;11.656;2023-08-06T05:54:10;13.20;99.90
41924;DHT22;27613;48.116;11.656;2023-08-06T05:56:36;13.20;99.90
41924;DHT22;27613;48.116;11.656;2023-08-06T05:59:01;13.30;99.90
41924;DHT22;27613;48.116;11.656;2023-08-06T06:01:27;13.40;99.90
41924;DHT22;27613;48.116;11.656;2023-08-06T06:03:52;13.50;99.90
41924;DHT22;27613;48.116;11.656;2023-08-06T06:06:18;13.50;99.90
41924;DHT22;27613;48.116;11.656;2023-08-06T06:08:44;13.50;99.90
41924;DHT22;27613;48.116;11.656;2023-08-06T06:11:10;13.60;99.90
41924;DHT22;27613;48.116;11.656;2023-08-06T06:13:35;13.70;99.90
41924;DHT22;27613;48.116;11.656;2023-08-06T06:16:01;13.70;99.90
41924;DHT22;27613;48.116;11.656;2023-08-06T06:18:26;13.80;99.90
41924;DHT22;27613;48.116;11.656;2023-08-06T06:20:52;13.80;99.90
41924;DHT22;27613;48.116;11.656;2023-08-06T06:23:17;13.90;99.90
41924;DHT22;27613;48.116;11.656;2023-08-06T06:25:44;14.00;99.90
41924;DHT22;27613;48.116;11.656;2023-08-06T06:28:12;14.10;99.90
41924;DHT22;27613;48.116;11.656;2023-08-06T06:30:37;14.20;99.90
41924;DHT22;27613;48.116;11.656;2023-08-06T06:33:03;14.30;99.90
41924;DHT22;27613;48.116;11.656;2023-08-06T06:35:28;14.50;99.90
41924;DHT22;27613;48.116;11.656;2023-08-06T06:37:54;14.50;99.90
41924;DHT22;27613;48.116;11.656;2023-08-06T06:40:19;14.60;99.90
41924;DHT22;27613;48.116;11.656;2023-08-06T06:42:45;14.70;99.90
41924;DHT22;27613;48.116;11.656;2023-08-06T06:45:10;14.80;99.90
41924;DHT22;27613;48.116;11.656;2023-08-06T06:47:36;14.90;99.90
41924;DHT22;27613;48.116;11.656;2023-08-06T06:50:01;15.10;99.90
41924;DHT22;27613;48.116;11.656;2023-08-06T06:52:27;15.20;99.90
41924;DHT22;27613;48.116;11.656;2023-08-06T06:54:52;15.20;99.90
41924;DHT22;27613;48.116;11.656;2023-08-06T06:57:18;15.10;99.90
41924;DHT22;27613;48.116;11.656;2023-08-06T06:59:43;15.30;99.90
41924;DHT22;27613;48.116;11.656;2023-08-06T07:02:09;15.40;99.90
41924;DHT22;27613;48.116;11.656;2023-08-06T07:04:34;15.40;99.90
41924;DHT22;27613;48.116;11.656;2023-08-06T07:07:00;15.60;99.90
41924;DHT22;27613;48.116;11.656;2023-08-06T07:09:26;15.60;99.90
41924;DHT22;27613;48.116;11.656;2023-08-06T07:11:52;15.60;99.90
41924;DHT22;27613;48.116;11.656;2023-08-06T07:14:17;15.60;99.90
41924;DHT22;27613;48.116;11.656;2023-08-06T07:16:43;15.70;99.90
41924;DHT22;27613;48.116;11.656;2023-08-06T07:19:08;16.00;99.90
41924;DHT22;27613;48.116;11.656;2023-08-06T07:21:34;16.40;99.90
41924;DHT22;27613;48.116;11.656;2023-08-06T07:24:00;16.40;99.90
41924;DHT22;27613;48.116;11.656;2023-08-06T07:26:25;16.30;99.90
41924;DHT22;27613;48.116;11.656;2023-08-06T07:28:51;16.20;99.90
41924;DHT22;27613;48.116;11.656;2023-08-06T07:31:16;16.00;99.90
41924;DHT22;27613;48.116;11.656;2023-08-06T07:33:42;15.70;99.90
41924;DHT22;27613;48.116;11.656;2023-08-06T07:36:12;15.70;99.90
41924;DHT22;27613;48.116;11.656;2023-08-06T07:38:38;15.10;99.90
41924;DHT22;27613;48.116;11.656;2023-08-06T07:41:04;15.10;99.90
41924;DHT22;27613;48.116;11.656;2023-08-06T07:43:30;14.90;99.90
41924;DHT22;27613;48.116;11.656;2023-08-06T07:45:58;14.80;99.90
41924;DHT22;27613;48.116;11.656;2023-08-06T07:48:25;15.00;99.90
41924;DHT22;27613;48.116;11.656;2023-08-06T07:50:54;14.90;99.90
41924;DHT22;27613;48.116;11.656;2023-08-06T07:53:24;14.90;99.90
41924;DHT22;27613;48.116;11.656;2023-08-06T07:55:53;14.90;99.90
41924;DHT22;27613;48.116;11.656;2023-08-06T07:58:20;14.90;99.90
41924;DHT22;27613;48.116;11.656;2023-08-06T08:00:46;14.90;99.90
41924;DHT22;27613;48.116;11.656;2023-08-06T08:03:13;15.00;99.90
41924;DHT22;27613;48.116;11.656;2023-08-06T08:05:39;15.20;99.90
41924;DHT22;27613;48.116;11.656;2023-08-06T08:08:05;15.60;99.90
41924;DHT22;27613;48.116;11.656;2023-08-06T08:10:31;15.80;99.90
41924;DHT22;27613;48.116;11.656;2023-08-06T08:12:57;15.80;99.90
41924;DHT22;27613;48.116;11.656;2023-08-06T08:15:24;16.10;99.90
41924;DHT22;27613;48.116;11.656;2023-08-06T08:17:51;16.50;99.90
41924;DHT22;27613;48.116;11.656;2023-08-06T08:20:17;16.90;99.90
41924;DHT22;27613;48.116;11.656;2023-08-06T08:22:43;16.90;99.90
41924;DHT22;27613;48.116;11.656;2023-08-06T08:25:08;16.50;99.90
41924;DHT22;27613;48.116;11.656;2023-08-06T08:27:34;16.60;99.90
41924;DHT22;27613;48.116;11.656;2023-08-06T08:29:59;16.80;99.90
41924;DHT22;27613;48.116;11.656;2023-08-06T08:32:25;17.10;99.90
41924;DHT22;27613;48.116;11.656;2023-08-06T08:34:50;17.30;99.90
41924;DHT22;27613;48.116;11.656;2023-08-06T08:37:16;17.20;99.90
41924;DHT22;27613;48.116;11.656;2023-08-06T08:39:41;17.20;99.90
41924;DHT22;27613;48.116;11.656;2023-08-06T08:42:08;17.30;99.90
41924;DHT22;27613;48.116;11.656;2023-08-06T08:44:35;17.20;99.90
41924;DHT22;27613;48.116;11.656;2023-08-06T08:47:08;17.20;98.00
41924;DHT22;27613;48.116;11.656;2023-08-06T08:49:37;17.00;98.00
41924;DHT22;27613;48.116;11.656;2023-08-06T08:52:04;16.80;98.00
41924;DHT22;27613;48.116;11.656;2023-08-06T08:54:33;16.60;98.40
41924;DHT22;27613;48.116;11.656;2023-08-06T08:56:59;16.90;97.70
41924;DHT22;27613;48.116;11.656;2023-08-06T08:59:26;16.70;99.20
41924;DHT22;27613;48.116;11.656;2023-08-06T09:01:52;16.30;99.50
41924;DHT22;27613;48.116;11.656;2023-08-06T09:04:19;16.20;99.90
41924;DHT22;27613;48.116;11.656;2023-08-06T09:06:50;16.30;99.90
41924;DHT22;27613;48.116;11.656;2023-08-06T09:09:22;16.50;99.60
41924;DHT22;27613;48.116;11.656;2023-08-06T09:11:50;16.90;97.90
41924;DHT22;27613;48.116;11.656;2023-08-06T09:14:17;16.70;97.50
41924;DHT22;27613;48.116;11.656;2023-08-06T09:16:43;16.80;97.80
41924;DHT22;27613;48.116;11.656;2023-08-06T09:19:09;16.70;98.90
41924;DHT22;27613;48.116;11.656;2023-08-06T09:21:42;16.50;99.30
41924;DHT22;27613;48.116;11.656;2023-08-06T09:24:11;16.40;99.90
41924;DHT22;27613;48.116;11.656;2023-08-06T09:26:41;16.20;99.90
41924;DHT22;27613;48.116;11.656;2023-08-06T09:29:08;16.20;99.90
41924;DHT22;27613;48.116;11.656;2023-08-06T09:32:02;16.50;99.90
41924;DHT22;27613;48.116;11.656;2023-08-06T09:34:28;16.60;99.90
41924;DHT22;27613;48.116;11.656;2023-08-06T09:36:54;16.50;99.90
41924;DHT22;27613;48.116;11.656;2023-08-06T09:39:26;16.60;99.90
41924;DHT22;27613;48.116;11.656;2023-08-06T09:41:59;16.60;99.90
41924;DHT22;27613;48.116;11.656;2023-08-06T09:44:26;16.60;99.90
41924;DHT22;27613;48.116;11.656;2023-08-06T09:46:55;16.70;99.90
41924;DHT22;27613;48.116;11.656;2023-08-06T09:49:42;16.60;99.90
41924;DHT22;27613;48.116;11.656;2023-08-06T09:52:14;16.90;98.90
41924;DHT22;27613;48.116;11.656;2023-08-06T09:54:43;16.90;96.60
41924;DHT22;27613;48.116;11.656;2023-08-06T09:57:09;16.90;96.60
41924;DHT22;27613;48.116;11.656;2023-08-06T09:59:36;16.90;98.20
41924;DHT22;27613;48.116;11.656;2023-08-06T10:02:10;16.80;97.40
41924;DHT22;27613;48.116;11.656;2023-08-06T10:04:37;17.00;96.90
41924;DHT22;27613;48.116;11.656;2023-08-06T10:07:03;16.80;96.90
41924;DHT22;27613;48.116;11.656;2023-08-06T10:09:29;16.50;96.20
41924;DHT22;27613;48.116;11.656;2023-08-06T10:11:56;16.30;96.30
41924;DHT22;27613;48.116;11.656;2023-08-06T10:14:26;16.10;96.60
41924;DHT22;27613;48.116;11.656;2023-08-06T10:16:54;15.90;97.70
41924;DHT22;27613;48.116;11.656;2023-08-06T10:19:22;15.70;97.50
41924;DHT22;27613;48.116;11.656;2023-08-06T10:22:08;15.70;98.20
41924;DHT22;27613;48.116;11.656;2023-08-06T10:24:53;15.70;98.90
41924;DHT22;27613;48.116;11.656;2023-08-06T10:30:28;16.20;99.20
41924;DHT22;27613;48.116;11.656;2023-08-06T10:32:56;16.60;97.50
41924;DHT22;27613;48.116;11.656;2023-08-06T10:35:40;17.50;95.10
41924;DHT22;27613;48.116;11.656;2023-08-06T10:38:14;17.90;93.90
41924;DHT22;27613;48.116;11.656;2023-08-06T10:40:42;17.80;94.20
41924;DHT22;27613;48.116;11.656;2023-08-06T10:43:07;17.60;94.40
41924;DHT22;27613;48.116;11.656;2023-08-06T10:45:36;17.40;94.00
41924;DHT22;27613;48.116;11.656;2023-08-06T10:48:02;17.20;94.70
41924;DHT22;27613;48.116;11.656;2023-08-06T10:50:28;16.90;95.10
41924;DHT22;27613;48.116;11.656;2023-08-06T10:52:54;17.10;94.80
41924;DHT22;27613;48.116;11.656;2023-08-06T10:55:27;17.00;95.10
41924;DHT22;27613;48.116;11.656;2023-08-06T10:57:53;16.90;97.50
41924;DHT22;27613;48.116;11.656;2023-08-06T11:00:23;16.90;95.10
41924;DHT22;27613;48.116;11.656;2023-08-06T11:02:49;16.90;95.90
41924;DHT22;27613;48.116;11.656;2023-08-06T11:05:15;17.60;94.60
41924;DHT22;27613;48.116;11.656;2023-08-06T11:07:41;17.80;93.10
41924;DHT22;27613;48.116;11.656;2023-08-06T11:10:09;19.60;90.10
41924;DHT22;27613;48.116;11.656;2023-08-06T11:12:35;19.70;88.00
41924;DHT22;27613;48.116;11.656;2023-08-06T11:15:01;18.20;90.90
41924;DHT22;27613;48.116;11.656;2023-08-06T11:17:29;17.70;92.50
41924;DHT22;27613;48.116;11.656;2023-08-06T11:19:55;17.70;93.00
41924;DHT22;27613;48.116;11.656;2023-08-06T11:22:21;19.00;92.30
41924;DHT22;27613;48.116;11.656;2023-08-06T11:24:48;18.20;91.10
41924;DHT22;27613;48.116;11.656;2023-08-06T11:27:15;17.70;93.20
41924;DHT22;27613;48.116;11.656;2023-08-06T11:29:42;17.20;94.20
41924;DHT22;27613;48.116;11.656;2023-08-06T11:32:08;16.60;95.50
41924;DHT22;27613;48.116;11.656;2023-08-06T11:34:35;16.50;97.10
41924;DHT22;27613;48.116;11.656;2023-08-06T11:37:03;16.80;97.00
41924;DHT22;27613;48.116;11.656;2023-08-06T11:39:32;16.60;95.10
41924;DHT22;27613;48.116;11.656;2023-08-06T11:41:57;17.30;94.30
41924;DHT22;27613;48.116;11.656;2023-08-06T11:44:25;17.90;92.80
41924;DHT22;27613;48.116;11.656;2023-08-06T11:49:17;16.90;98.40
41924;DHT22;27613;48.116;11.656;2023-08-06T11:51:49;16.90;97.60
41924;DHT22;27613;48.116;11.656;2023-08-06T11:54:15;16.70;96.90
41924;DHT22;27613;48.116;11.656;2023-08-06T11:56:40;16.90;98.30
41924;DHT22;27613;48.116;11.656;2023-08-06T11:59:08;16.70;98.10
41924;DHT22;27613;48.116;11.656;2023-08-06T12:01:33;16.70;97.40
41924;DHT22;27613;48.116;11.656;2023-08-06T12:03:59;16.90;98.10
41924;DHT22;27613;48.116;11.656;2023-08-06T12:06:28;16.90;97.50
41924;DHT22;27613;48.116;11.656;2023-08-06T12:08:53;16.60;97.50
41924;DHT22;27613;48.116;11.656;2023-08-06T12:11:21;16.50;98.80
41924;DHT22;27613;48.116;11.656;2023-08-06T12:13:51;16.80;97.30
41924;DHT22;27613;48.116;11.656;2023-08-06T12:16:17;16.90;97.70
41924;DHT22;27613;48.116;11.656;2023-08-06T12:18:44;17.50;97.00
41924;DHT22;27613;48.116;11.656;2023-08-06T12:21:09;17.90;96.20
41924;DHT22;27613;48.116;11.656;2023-08-06T12:23:35;17.40;95.90
41924;DHT22;27613;48.116;11.656;2023-08-06T12:26:01;17.10;96.80
41924;DHT22;27613;48.116;11.656;2023-08-06T12:28:27;17.10;97.10
41924;DHT22;27613;48.116;11.656;2023-08-06T12:30:52;16.80;97.70
41924;DHT22;27613;48.116;11.656;2023-08-06T12:33:20;16.80;98.50
41924;DHT22;27613;48.116;11.656;2023-08-06T12:35:46;16.80;98.60
41924;DHT22;27613;48.116;11.656;2023-08-06T12:38:11;16.40;99.80
41924;DHT22;27613;48.116;11.656;2023-08-06T12:40:38;16.50;99.90
41924;DHT22;27613;48.116;11.656;2023-08-06T12:43:04;16.70;99.20
41924;DHT22;27613;48.116;11.656;2023-08-06T12:45:29;16.20;99.50
41924;DHT22;27613;48.116;11.656;2023-08-06T12:47:55;16.00;99.90
41924;DHT22;27613;48.116;11.656;2023-08-06T12:50:20;15.80;99.90
41924;DHT22;27613;48.116;11.656;2023-08-06T12:52:46;15.60;99.90
41924;DHT22;27613;48.116;11.656;2023-08-06T12:55:12;15.10;99.90
41924;DHT22;27613;48.116;11.656;2023-08-06T12:57:37;14.60;99.90
41924;DHT22;27613;48.116;11.656;2023-08-06T13:00:04;14.70;99.90
41924;DHT22;27613;48.116;11.656;2023-08-06T13:02:30;14.90;99.90
41924;DHT22;27613;48.116;11.656;2023-08-06T13:04:56;15.30;99.90
41924;DHT22;27613;48.116;11.656;2023-08-06T13:07:21;15.50;99.90
41924;DHT22;27613;48.116;11.656;2023-08-06T13:09:47;15.60;99.90
41924;DHT22;27613;48.116;11.656;2023-08-06T13:12:12;15.80;99.90
41924;DHT22;27613;48.116;11.656;2023-08-06T13:14:38;15.70;99.90
41924;DHT22;27613;48.116;11.656;2023-08-06T13:17:03;15.70;99.90
41924;DHT22;27613;48.116;11.656;2023-08-06T13:19:32;15.90;99.90
41924;DHT22;27613;48.116;11.656;2023-08-06T13:22:02;16.90;99.90
41924;DHT22;27613;48.116;11.656;2023-08-06T13:24:29;17.60;99.90
41924;DHT22;27613;48.116;11.656;2023-08-06T13:26:55;17.20;99.90
41924;DHT22;27613;48.116;11.656;2023-08-06T13:29:21;18.20;99.90
41924;DHT22;27613;48.116;11.656;2023-08-06T13:31:46;18.20;99.90
41924;DHT22;27613;48.116;11.656;2023-08-06T13:34:12;16.90;99.90
41924;DHT22;27613;48.116;11.656;2023-08-06T13:36:37;15.50;99.90
41924;DHT22;27613;48.116;11.656;2023-08-06T13:39:03;14.30;99.90
41924;DHT22;27613;48.116;11.656;2023-08-06T13:41:30;14.20;99.90
41924;DHT22;27613;48.116;11.656;2023-08-06T13:43:56;14.40;99.90
41924;DHT22;27613;48.116;11.656;2023-08-06T13:46:21;14.80;99.90
41924;DHT22;27613;48.116;11.656;2023-08-06T13:48:48;15.20;99.90
41924;DHT22;27613;48.116;11.656;2023-08-06T13:51:17;15.70;99.90
41924;DHT22;27613;48.116;11.656;2023-08-06T13:53:42;15.20;99.90
41924;DHT22;27613;48.116;11.656;2023-08-06T13:56:09;15.10;99.90
41924;DHT22;27613;48.116;11.656;2023-08-06T13:58:36;14.80;99.90
41924;DHT22;27613;48.116;11.656;2023-08-06T14:01:02;15.00;99.90
41924;DHT22;27613;48.116;11.656;2023-08-06T14:03:27;14.90;99.90
41924;DHT22;27613;48.116;11.656;2023-08-06T14:05:53;14.80;99.90
41924;DHT22;27613;48.116;11.656;2023-08-06T14:08:24;14.50;99.90
41924;DHT22;27613;48.116;11.656;2023-08-06T14:10:51;14.40;99.90
41924;DHT22;27613;48.116;11.656;2023-08-06T14:13:16;14.40;99.90
41924;DHT22;27613;48.116;11.656;2023-08-06T14:15:43;14.10;99.90
41924;DHT22;27613;48.116;11.656;2023-08-06T14:18:15;14.00;99.90
41924;DHT22;27613;48.116;11.656;2023-08-06T14:20:41;14.10;99.90
41924;DHT22;27613;48.116;11.656;2023-08-06T14:23:07;14.10;99.90
41924;DHT22;27613;48.116;11.656;2023-08-06T14:25:32;14.10;99.90
41924;DHT22;27613;48.116;11.656;2023-08-06T14:27:58;14.30;99.90
41924;DHT22;27613;48.116;11.656;2023-08-06T14:30:24;13.90;99.90
41924;DHT22;27613;48.116;11.656;2023-08-06T14:32:49;14.10;99.90
41924;DHT22;27613;48.116;11.656;2023-08-06T14:35:15;13.90;99.90
41924;DHT22;27613;48.116;11.656;2023-08-06T14:37:40;13.90;99.90
41924;DHT22;27613;48.116;11.656;2023-08-06T14:40:07;13.40;99.90
41924;DHT22;27613;48.116;11.656;2023-08-06T14:42:33;13.30;99.90
41924;DHT22;27613;48.116;11.656;2023-08-06T14:44:58;13.30;99.90
41924;DHT22;27613;48.116;11.656;2023-08-06T14:47:24;13.20;99.90
41924;DHT22;27613;48.116;11.656;2023-08-06T14:49:49;13.20;99.90
41924;DHT22;27613;48.116;11.656;2023-08-06T14:52:16;13.10;99.90
41924;DHT22;27613;48.116;11.656;2023-08-06T14:54:42;13.10;99.90
41924;DHT22;27613;48.116;11.656;2023-08-06T14:57:09;13.20;99.90
41924;DHT22;27613;48.116;11.656;2023-08-06T14:59:35;13.30;99.90
41924;DHT22;27613;48.116;11.656;2023-08-06T15:02:00;13.30;99.90
41924;DHT22;27613;48.116;11.656;2023-08-06T15:04:26;13.30;99.90
41924;DHT22;27613;48.116;11.656;2023-08-06T15:06:51;13.10;99.90
41924;DHT22;27613;48.116;11.656;2023-08-06T15:09:17;13.10;99.90
41924;DHT22;27613;48.116;11.656;2023-08-06T15:11:43;13.20;99.90
41924;DHT22;27613;48.116;11.656;2023-08-06T15:14:08;13.00;99.90
41924;DHT22;27613;48.116;11.656;2023-08-06T15:16:34;13.00;99.90
41924;DHT22;27613;48.116;11.656;2023-08-06T15:19:00;13.00;99.90
41924;DHT22;27613;48.116;11.656;2023-08-06T15:21:27;13.00;99.90
41924;DHT22;27613;48.116;11.656;2023-08-06T15:23:52;13.20;99.90